Andrómeda ‚ÄĒ CTHK ‚ÄĒ position and weather

sailwx.info

Track history (hours):
 
Tides and Currents Weather Stations Pressure Air Temp Water Temp Dewpoint Dewpoint Depression Visibility Wind Speed Wind Dir Waves Ship Positions

Oceanographic research ship Andrómeda (Portugal)

Detailed information on ship capabilities available from University of Delaware's Ocean Information Center.

Last reported at 2020-Aug-01 11:25 UTC. Time now 2020-Aug-04 14:55 UTC.
Position N 38°40' W 009°09'.

Length 32 m; draft 3 m.

Type: Dredging. MMSI: 263139000.

Date/timePositionNaut miles runAvg speedWind from/ knotsBaromVisibWave heightAir tempDewpointWater temp
2020-Aug-01 11:25N 38°40' W 009°09'5 2.9
2020-Aug-01 09:30N 38°41' W 009°16'4310.7
2020-Aug-01 05:29N 38°11' W 009°55'2610.6
2020-Aug-01 03:00N 37°52' W 010°18'510.7
2020-Aug-01 02:30N 37°48' W 010°23'2110.5
2020-Aug-01 00:30N 37°33' W 010°42'510.7
2020-Aug-01 00:00N 37°30' W 010°47'2610.6
2020-Jul-31 21:30N 37°10' W 011°09'3610.4
2020-Jul-31 18:00N 36°44' W 011°41'2610.5
2020-Jul-31 15:30N 36°25' W 012°04'3710.6
2020-Jul-31 12:00N 35°58' W 012°36'12811.1
2020-Jul-31 00:27N 34°27' W 014°26'2711.2
2020-Jul-30 22:02N 34°08' W 014°48'1811.3
2020-Jul-30 20:26N 33°55' W 015°03'  
2020-Jul-24 20:11N 32°39' W 016°55'5 0.5
2020-Jul-24 08:35N 32°36' W 016°49'5 1.7
2020-Jul-24 05:25N 32°39' W 016°55'  
Track history (hours):
 
Tides and Currents Weather Stations Pressure Air Temp Water Temp Dewpoint Dewpoint Depression Visibility Wind Speed Wind Dir Waves Ship Positions

Oceanographic research ship Andrómeda (Portugal)

Detailed information on ship capabilities available from University of Delaware's Ocean Information Center.

Last reported at 2020-Aug-01 11:25 UTC. Time now 2020-Aug-04 14:55 UTC.
Position N 38°40' W 009°09'.

Length 32 m; draft 3 m.

Type: Dredging. MMSI: 263139000.

Date/timePositionNaut miles runAvg speedWind from/ knotsBaromVisibWave heightAir tempDewpointWater temp
2020-Aug-01 11:25N 38°40' W 009°09'5 2.9
2020-Aug-01 09:30N 38°41' W 009°16'4310.7
2020-Aug-01 05:29N 38°11' W 009°55'2610.6
2020-Aug-01 03:00N 37°52' W 010°18'510.7
2020-Aug-01 02:30N 37°48' W 010°23'2110.5
2020-Aug-01 00:30N 37°33' W 010°42'510.7
2020-Aug-01 00:00N 37°30' W 010°47'2610.6
2020-Jul-31 21:30N 37°10' W 011°09'3610.4
2020-Jul-31 18:00N 36°44' W 011°41'2610.5
2020-Jul-31 15:30N 36°25' W 012°04'3710.6
2020-Jul-31 12:00N 35°58' W 012°36'12811.1
2020-Jul-31 00:27N 34°27' W 014°26'2711.2
2020-Jul-30 22:02N 34°08' W 014°48'1811.3
2020-Jul-30 20:26N 33°55' W 015°03'  
2020-Jul-24 20:11N 32°39' W 016°55'5 0.5
2020-Jul-24 08:35N 32°36' W 016°49'5 1.7
2020-Jul-24 05:25N 32°39' W 016°55'  

Dump ship's entire track history